Terminal Aerodrome Forecast
Issued by NWS Jackson, KY

Home | Current Version | Previous Version | Text Only | Print | Product List | Glossary On
Versions: 1 2 3 4 5 6 7 8 9 10 11 12 13 14 15 16
000
FTUS43 KJKL 212300
TAFJKL
TAF
KJKL 212321Z 2200/2224 VRB03KT P6SM SCT250
     FM220500 00000KT P6SM SCT050 BKN250
     FM220800 12003KT P6SM BKN035 OVC050
     FM221600 15009KT P6SM OVC035=

USA.gov is the U.S. government's official web portal to all federal, state and local government web resources and services.